Time;durP1;ratioP1;P1;durP2;ratioP2;P2;SDS_P1;SDS_P2;PMS_P1;PMS_P2;Temp;Humidity;BMP_temperature;BMP_pressure;BME280_temperature;BME280_humidity;BME280_pressure;Samples;Min_cycle;Max_cycle;Signal;HPM_P1;HPM_P2
2023/05/30 00:01:39;;;;;;;18.90;4.50;;;14.30;99.90;;;;;;5055177;28;20270;-58
2023/05/30 00:04:05;;;;;;;11.63;3.77;;;14.30;99.90;;;;;;5054545;28;20166;-57
2023/05/30 00:06:31;;;;;;;11.63;3.13;;;14.20;99.90;;;;;;5056675;28;20256;-57
2023/05/30 00:08:57;;;;;;;12.43;3.10;;;14.20;99.90;;;;;;5057621;28;20180;-57
2023/05/30 00:11:35;;;;;;;15.27;3.53;;;14.10;99.90;;;;;;5058555;28;20154;-56
2023/05/30 00:14:01;;;;;;;10.90;3.37;;;14.10;99.90;;;;;;5058133;28;20192;-57
2023/05/30 00:16:28;;;;;;;15.37;3.40;;;14.00;99.90;;;;;;5057086;28;20211;-58
2023/05/30 00:18:53;;;;;;;16.97;3.37;;;14.00;99.90;;;;;;5056661;28;20600;-56
2023/05/30 00:21:19;;;;;;;17.23;3.83;;;14.00;99.90;;;;;;5056530;28;20197;-53
2023/05/30 00:23:45;;;;;;;14.03;4.10;;;14.00;99.90;;;;;;5057450;28;20181;-55
2023/05/30 00:26:12;;;;;;;13.83;3.63;;;14.00;99.90;;;;;;5057029;28;20787;-58
2023/05/30 00:28:38;;;;;;;15.97;3.70;;;14.00;99.90;;;;;;5056389;28;20166;-57
2023/05/30 00:31:05;;;;;;;10.53;2.90;;;14.00;99.90;;;;;;5057557;28;20196;-57
2023/05/30 00:33:31;;;;;;;13.03;3.80;;;13.90;99.90;;;;;;5056938;28;20166;-54
2023/05/30 00:35:57;;;;;;;12.07;3.50;;;13.90;99.90;;;;;;5058252;28;20253;-57
2023/05/30 00:38:23;;;;;;;12.83;3.10;;;13.80;99.90;;;;;;5057707;28;20174;-58
2023/05/30 00:40:48;;;;;;;9.20;3.77;;;13.70;99.90;;;;;;5057829;28;20204;-56
2023/05/30 00:43:15;;;;;;;12.63;2.83;;;13.70;99.90;;;;;;5057567;28;20612;-57
2023/05/30 00:45:41;;;;;;;13.03;3.23;;;13.70;99.90;;;;;;5057308;28;20188;-56
2023/05/30 00:48:07;;;;;;;17.53;3.27;;;13.70;99.90;;;;;;5057624;28;20260;-54
2023/05/30 00:50:34;;;;;;;8.97;3.23;;;13.70;99.90;;;;;;5057332;28;20260;-58
2023/05/30 00:53:00;;;;;;;13.03;3.63;;;13.70;99.90;;;;;;5054780;28;20202;-57
2023/05/30 00:55:27;;;;;;;15.47;3.17;;;13.70;99.90;;;;;;5052607;28;20329;-56
2023/05/30 00:57:54;;;;;;;11.27;3.17;;;13.60;99.90;;;;;;5049941;28;20228;-58
2023/05/30 01:00:22;;;;;;;12.30;3.27;;;13.50;99.90;;;;;;5049534;28;20173;-58
2023/05/30 01:02:48;;;;;;;9.03;3.20;;;13.40;99.90;;;;;;5049547;28;20262;-57
2023/05/30 01:05:14;;;;;;;15.07;2.70;;;13.40;99.90;;;;;;5048804;28;20177;-52
2023/05/30 01:07:44;;;;;;;16.67;3.70;;;13.40;99.90;;;;;;5050242;28;20177;-57
2023/05/30 01:10:15;;;;;;;10.53;3.50;;;13.40;99.90;;;;;;5050706;28;20571;-56
2023/05/30 01:13:04;;;;;;;12.90;2.90;;;13.30;99.90;;;;;;5052765;28;20181;-56
2023/05/30 01:15:33;;;;;;;11.30;3.03;;;13.30;99.90;;;;;;5053471;28;20169;-57
2023/05/30 01:18:27;;;;;;;11.23;2.90;;;13.30;99.90;;;;;;5052245;28;20187;-55
2023/05/30 01:20:59;;;;;;;11.43;3.10;;;13.30;99.90;;;;;;5052632;28;20173;-57
2023/05/30 01:23:41;;;;;;;10.37;3.30;;;13.30;99.90;;;;;;5056739;28;20243;-56
2023/05/30 01:26:26;;;;;;;13.43;3.83;;;13.20;99.90;;;;;;5057533;28;20173;-57
2023/05/30 01:28:54;;;;;;;13.57;3.27;;;13.20;99.90;;;;;;5056228;28;20166;-56
2023/05/30 01:31:22;;;;;;;14.47;3.57;;;13.10;99.90;;;;;;5057102;28;20267;-58
2023/05/30 01:33:48;;;;;;;13.47;3.47;;;13.10;99.90;;;;;;5057429;28;20492;-58
2023/05/30 01:36:13;;;;;;;8.53;3.53;;;13.00;99.90;;;;;;5056846;28;20327;-58
2023/05/30 01:38:39;;;;;;;10.03;2.90;;;13.00;99.90;;;;;;5056845;28;20178;-57
2023/05/30 01:41:17;;;;;;;14.00;3.73;;;13.00;99.90;;;;;;5057488;28;20603;-58
2023/05/30 01:44:06;;;;;;;9.80;3.13;;;13.00;99.90;;;;;;5057033;28;20176;-58
2023/05/30 01:46:45;;;;;;;9.53;3.00;;;13.00;99.90;;;;;;5056064;28;20162;-58
2023/05/30 01:50:06;;;;;;;12.00;2.70;;;13.00;99.90;;;;;;5057348;28;20168;-56
2023/05/30 01:52:36;;;;;;;11.90;3.73;;;13.00;99.90;;;;;;5023836;28;20193;-58
2023/05/30 01:55:05;;;;;;;14.87;3.20;;;12.90;99.90;;;;;;5056746;28;20165;-58
2023/05/30 01:57:31;;;;;;;7.63;2.73;;;12.90;99.90;;;;;;5056618;28;20175;-55
2023/05/30 01:59:59;;;;;;;6.33;2.50;;;12.90;99.90;;;;;;5056026;28;20172;-58
2023/05/30 02:02:25;;;;;;;8.77;2.60;;;12.80;99.90;;;;;;5056008;28;20247;-58
2023/05/30 02:04:50;;;;;;;15.07;3.80;;;12.80;99.90;;;;;;5057062;28;20173;-58
2023/05/30 02:07:17;;;;;;;8.33;2.27;;;12.90;99.90;;;;;;5057475;28;20169;-58
2023/05/30 02:09:43;;;;;;;9.97;4.33;;;12.80;99.90;;;;;;5056546;28;20185;-56
2023/05/30 02:12:09;;;;;;;14.30;3.80;;;12.80;99.90;;;;;;5056773;28;20263;-57
2023/05/30 02:14:36;;;;;;;8.13;2.60;;;12.60;99.90;;;;;;5056373;28;20273;-58
2023/05/30 02:17:02;;;;;;;9.57;2.77;;;12.60;99.90;;;;;;5056008;28;20168;-55
2023/05/30 02:19:29;;;;;;;7.77;2.03;;;12.60;99.90;;;;;;5055984;28;20170;-58
2023/05/30 02:21:55;;;;;;;15.73;3.30;;;12.60;99.90;;;;;;5055299;28;20205;-56
2023/05/30 02:24:22;;;;;;;13.50;4.10;;;12.50;99.90;;;;;;5056133;28;20527;-58
2023/05/30 02:26:48;;;;;;;10.97;2.90;;;12.50;99.90;;;;;;5055142;28;20502;-57
2023/05/30 02:29:13;;;;;;;10.63;3.23;;;12.60;99.90;;;;;;5054937;28;20580;-58
2023/05/30 02:31:45;;;;;;;10.00;3.33;;;12.60;99.90;;;;;;5054986;28;20545;-57
2023/05/30 02:34:11;;;;;;;14.17;3.13;;;12.50;99.90;;;;;;5055338;28;20173;-55
2023/05/30 02:36:38;;;;;;;9.23;3.03;;;12.50;99.90;;;;;;5055908;28;20250;-57
2023/05/30 02:39:07;;;;;;;11.33;3.37;;;12.50;99.90;;;;;;5055171;28;20271;-57
2023/05/30 02:41:33;;;;;;;12.33;2.70;;;12.50;99.90;;;;;;5055245;28;20209;-57
2023/05/30 02:43:59;;;;;;;12.80;3.03;;;12.60;99.90;;;;;;5054045;28;20196;-58
2023/05/30 02:46:38;;;;;;;12.20;3.63;;;12.50;99.90;;;;;;5055174;28;20267;-58
2023/05/30 02:49:04;;;;;;;12.57;3.03;;;12.50;99.90;;;;;;5055590;28;20185;-58
2023/05/30 02:51:31;;;;;;;10.90;3.07;;;12.50;99.90;;;;;;5055102;28;20211;-56
2023/05/30 02:53:56;;;;;;;11.43;3.23;;;12.30;99.90;;;;;;5055102;28;20208;-53
2023/05/30 02:56:27;;;;;;;16.97;3.47;;;12.30;99.90;;;;;;5054909;28;20268;-58
2023/05/30 02:58:54;;;;;;;10.53;3.53;;;12.30;99.90;;;;;;5054726;28;20173;-59
2023/05/30 03:01:20;;;;;;;13.33;2.80;;;12.30;99.90;;;;;;5055313;28;20154;-60
2023/05/30 03:03:45;;;;;;;8.73;3.23;;;12.20;99.90;;;;;;5055495;28;20168;-57
2023/05/30 03:06:13;;;;;;;9.90;3.43;;;12.20;99.90;;;;;;5055557;28;20186;-58
2023/05/30 03:08:42;;;;;;;12.20;3.10;;;12.20;99.90;;;;;;5056388;28;20596;-58
2023/05/30 03:11:12;;;;;;;11.27;3.00;;;12.10;99.90;;;;;;5054521;28;20169;-59
2023/05/30 03:13:41;;;;;;;13.57;3.47;;;12.10;99.90;;;;;;5055255;28;20165;-59
2023/05/30 03:16:06;;;;;;;8.70;2.97;;;12.00;99.90;;;;;;5056105;28;20157;-58
2023/05/30 03:18:32;;;;;;;11.43;2.77;;;12.00;99.90;;;;;;5055971;28;20173;-58
2023/05/30 03:20:59;;;;;;;10.50;3.47;;;12.00;99.90;;;;;;5048595;28;20547;-58
2023/05/30 03:23:24;;;;;;;6.97;2.87;;;12.10;99.90;;;;;;5036441;28;20197;-58
2023/05/30 03:25:50;;;;;;;11.60;2.73;;;12.00;99.90;;;;;;5036418;28;20185;-56
2023/05/30 03:28:16;;;;;;;9.60;2.87;;;11.90;99.90;;;;;;5035704;28;20174;-58
2023/05/30 03:30:41;;;;;;;12.50;3.40;;;11.90;99.90;;;;;;5049362;28;20516;-58
2023/05/30 03:33:07;;;;;;;11.33;3.00;;;11.90;99.90;;;;;;5055976;28;20170;-58
2023/05/30 03:35:33;;;;;;;13.83;3.33;;;11.90;99.90;;;;;;5053292;28;20216;-58
2023/05/30 03:37:58;;;;;;;13.03;3.03;;;11.90;99.90;;;;;;5055131;28;20172;-57
2023/05/30 03:40:25;;;;;;;10.17;2.87;;;11.90;99.90;;;;;;5058749;28;20632;-57
2023/05/30 03:42:52;;;;;;;13.03;3.27;;;11.90;99.90;;;;;;5058851;28;20576;-54
2023/05/30 03:45:19;;;;;;;13.93;3.53;;;11.90;99.90;;;;;;5059665;28;20176;-57
2023/05/30 03:47:58;;;;;;;16.43;4.07;;;12.00;99.90;;;;;;5059264;28;20193;-57
2023/05/30 03:50:23;;;;;;;15.80;3.93;;;12.00;99.90;;;;;;5059296;28;20193;-57
2023/05/30 03:52:49;;;;;;;8.07;2.73;;;12.00;99.90;;;;;;5058902;28;20200;-56
2023/05/30 03:55:15;;;;;;;16.57;2.97;;;12.00;99.90;;;;;;5058288;28;20192;-56
2023/05/30 03:57:40;;;;;;;9.87;2.97;;;12.10;99.90;;;;;;5058060;28;20536;-58
2023/05/30 04:00:06;;;;;;;10.40;3.10;;;12.10;99.90;;;;;;5057584;28;20288;-57
2023/05/30 04:02:32;;;;;;;16.03;3.90;;;12.10;99.90;;;;;;5056815;28;20524;-57
2023/05/30 04:04:58;;;;;;;11.60;3.00;;;12.10;99.90;;;;;;5057255;28;20712;-57
2023/05/30 04:07:24;;;;;;;18.40;4.23;;;12.10;99.90;;;;;;5056987;28;20554;-58
2023/05/30 04:09:51;;;;;;;10.60;3.23;;;12.20;99.90;;;;;;5057892;28;20874;-56
2023/05/30 04:12:16;;;;;;;13.33;3.37;;;12.20;99.90;;;;;;5055260;28;20165;-57
2023/05/30 04:14:42;;;;;;;12.57;3.57;;;12.20;99.90;;;;;;5053085;28;20272;-56
2023/05/30 04:17:07;;;;;;;10.33;3.20;;;12.30;99.90;;;;;;5051367;28;20169;-54
2023/05/30 04:19:34;;;;;;;11.30;3.90;;;12.20;99.90;;;;;;5049817;28;20174;-56
2023/05/30 04:22:00;;;;;;;13.10;3.87;;;12.20;99.90;;;;;;5049595;28;20647;-57
2023/05/30 04:24:29;;;;;;;13.60;3.47;;;12.30;99.90;;;;;;5048997;28;20249;-57
2023/05/30 04:26:55;;;;;;;11.73;3.40;;;12.30;99.90;;;;;;5052346;28;20166;-56
2023/05/30 04:29:22;;;;;;;12.13;3.70;;;12.30;99.90;;;;;;5054094;28;20577;-57
2023/05/30 04:31:47;;;;;;;22.23;4.20;;;12.20;99.90;;;;;;5054852;28;20182;-57
2023/05/30 04:34:15;;;;;;;11.80;4.10;;;12.20;99.90;;;;;;5054499;28;20188;-57
2023/05/30 04:36:41;;;;;;;10.33;3.93;;;12.10;99.90;;;;;;5053294;28;20225;-58
2023/05/30 04:39:07;;;;;;;13.03;4.00;;;12.10;99.90;;;;;;5054196;28;20169;-58
2023/05/30 04:41:33;;;;;;;16.47;4.20;;;12.10;99.90;;;;;;5052462;28;20622;-56
2023/05/30 04:43:59;;;;;;;10.50;3.30;;;12.10;99.90;;;;;;5052654;28;20189;-57
2023/05/30 04:46:28;;;;;;;9.00;3.80;;;12.10;99.90;;;;;;5054535;28;20234;-57
2023/05/30 04:48:58;;;;;;;11.50;3.80;;;12.20;99.90;;;;;;5053408;28;20174;-57
2023/05/30 04:51:24;;;;;;;15.87;4.33;;;12.20;99.90;;;;;;5051515;28;20173;-56
2023/05/30 04:53:50;;;;;;;13.17;4.03;;;12.20;99.90;;;;;;5053257;28;20176;-58
2023/05/30 04:56:16;;;;;;;11.80;3.37;;;12.30;99.90;;;;;;5053074;28;20185;-58
2023/05/30 04:58:46;;;;;;;10.67;3.70;;;12.30;99.90;;;;;;5052207;28;20213;-58
2023/05/30 05:01:13;;;;;;;11.40;3.67;;;12.30;99.90;;;;;;5051336;28;20187;-57
2023/05/30 05:03:42;;;;;;;10.80;3.30;;;12.30;99.90;;;;;;5050867;28;20173;-58
2023/05/30 05:06:08;;;;;;;20.83;4.97;;;12.40;99.90;;;;;;5052935;28;20732;-58
2023/05/30 05:08:35;;;;;;;13.60;4.07;;;12.40;99.90;;;;;;5054277;28;20231;-58
2023/05/30 05:11:03;;;;;;;9.53;3.07;;;12.40;99.90;;;;;;5053717;28;20162;-59
2023/05/30 05:13:29;;;;;;;9.63;4.00;;;12.40;99.90;;;;;;5053234;28;20197;-58
2023/05/30 05:15:55;;;;;;;11.20;3.53;;;12.40;99.90;;;;;;5053935;28;20180;-59
2023/05/30 05:18:21;;;;;;;17.27;4.53;;;12.50;99.90;;;;;;5052416;28;20174;-55
2023/05/30 05:20:47;;;;;;;12.93;3.83;;;12.50;99.90;;;;;;5053095;28;20235;-58
2023/05/30 05:23:13;;;;;;;9.83;3.77;;;12.50;99.90;;;;;;5054276;28;20239;-58
2023/05/30 05:25:39;;;;;;;16.00;3.93;;;12.50;99.90;;;;;;5051786;28;20507;-58
2023/05/30 05:28:05;;;;;;;13.47;4.67;;;12.50;99.90;;;;;;5051841;28;20248;-58
2023/05/30 05:30:30;;;;;;;15.80;4.17;;;12.50;99.90;;;;;;5052222;28;20184;-58
2023/05/30 05:32:56;;;;;;;8.60;4.07;;;12.50;99.90;;;;;;5052207;28;20177;-57
2023/05/30 05:35:22;;;;;;;11.63;4.27;;;12.50;99.90;;;;;;5050673;28;20274;-56
2023/05/30 05:37:48;;;;;;;12.07;4.37;;;12.50;99.90;;;;;;5050234;28;20264;-56
2023/05/30 05:40:17;;;;;;;12.60;4.93;;;12.50;99.90;;;;;;5051330;28;20207;-59
2023/05/30 05:42:43;;;;;;;15.50;5.00;;;12.50;99.90;;;;;;5050001;28;20224;-58
2023/05/30 05:45:09;;;;;;;12.20;3.63;;;12.50;99.90;;;;;;5052422;28;20227;-58
2023/05/30 05:47:35;;;;;;;8.00;3.03;;;12.50;99.90;;;;;;5051032;28;20158;-54
2023/05/30 05:50:01;;;;;;;15.70;4.33;;;12.50;99.90;;;;;;5050981;28;20166;-59
2023/05/30 05:52:27;;;;;;;13.90;3.90;;;12.60;99.90;;;;;;5044219;28;20311;-58
2023/05/30 05:54:53;;;;;;;12.93;3.77;;;12.60;99.90;;;;;;5042993;28;20165;-59
2023/05/30 05:57:18;;;;;;;12.20;3.63;;;12.60;99.90;;;;;;5039545;28;20184;-58
2023/05/30 05:59:44;;;;;;;13.40;3.50;;;12.60;99.90;;;;;;5040406;28;20169;-59
2023/05/30 06:02:10;;;;;;;14.37;4.00;;;12.60;99.90;;;;;;5041106;28;20271;-59
2023/05/30 06:04:36;;;;;;;9.93;4.07;;;12.60;99.90;;;;;;5041150;28;20234;-56
2023/05/30 06:07:02;;;;;;;11.83;3.93;;;12.60;99.90;;;;;;5037682;28;20287;-58
2023/05/30 06:09:31;;;;;;;15.83;3.60;;;12.60;99.90;;;;;;5036561;28;20173;-54
2023/05/30 06:12:03;;;;;;;12.63;4.00;;;12.60;99.90;;;;;;5037174;28;20172;-57
2023/05/30 06:14:29;;;;;;;13.97;4.27;;;12.60;99.90;;;;;;5037153;28;20268;-59
2023/05/30 06:16:54;;;;;;;13.63;4.73;;;12.60;99.90;;;;;;5037542;28;20356;-58
2023/05/30 06:19:21;;;;;;;9.93;4.03;;;12.60;99.90;;;;;;5037563;28;20494;-59
2023/05/30 06:21:46;;;;;;;12.50;3.27;;;12.60;99.90;;;;;;5041577;28;20208;-58
2023/05/30 06:24:12;;;;;;;9.63;3.97;;;12.60;99.90;;;;;;5047341;28;20479;-58
2023/05/30 06:26:37;;;;;;;9.70;3.93;;;12.60;99.90;;;;;;5047108;28;20173;-58
2023/05/30 06:29:03;;;;;;;9.83;4.20;;;12.60;99.90;;;;;;5050016;28;20178;-59
2023/05/30 06:31:29;;;;;;;12.27;4.20;;;12.70;99.90;;;;;;5048489;28;20284;-58
2023/05/30 06:33:55;;;;;;;11.20;4.43;;;12.70;99.90;;;;;;5048439;28;20173;-58
2023/05/30 06:36:20;;;;;;;9.67;3.30;;;12.70;99.90;;;;;;5047314;28;20224;-59
2023/05/30 06:38:46;;;;;;;10.37;3.40;;;12.70;99.90;;;;;;5046397;28;20193;-59
2023/05/30 06:41:12;;;;;;;5.23;2.90;;;12.70;99.90;;;;;;5047361;28;20656;-58
2023/05/30 06:43:38;;;;;;;9.83;3.53;;;12.70;99.90;;;;;;5046029;28;20561;-57
2023/05/30 06:46:04;;;;;;;10.30;3.57;;;12.70;99.90;;;;;;5045658;28;20169;-57
2023/05/30 06:48:29;;;;;;;6.70;3.63;;;12.70;99.90;;;;;;5045878;28;20173;-57
2023/05/30 06:50:56;;;;;;;10.10;3.73;;;12.70;99.90;;;;;;5046032;28;20169;-58
2023/05/30 06:53:22;;;;;;;7.27;3.40;;;12.80;99.90;;;;;;5048113;28;20268;-58
2023/05/30 06:55:47;;;;;;;7.57;3.47;;;12.80;99.90;;;;;;5048349;28;20260;-59
2023/05/30 06:58:13;;;;;;;10.03;3.50;;;12.90;99.90;;;;;;5048135;28;20674;-59
2023/05/30 07:00:39;;;;;;;7.77;3.20;;;12.80;99.90;;;;;;5048911;28;20261;-58
2023/05/30 07:03:05;;;;;;;9.00;3.57;;;12.90;99.90;;;;;;5049522;28;20213;-58
2023/05/30 07:05:31;;;;;;;5.77;3.27;;;12.90;99.90;;;;;;5050291;28;20176;-62
2023/05/30 07:07:56;;;;;;;12.10;3.63;;;12.90;99.90;;;;;;5047941;28;20170;-59
2023/05/30 07:10:22;;;;;;;12.67;4.43;;;12.90;99.90;;;;;;5048998;28;20188;-59
2023/05/30 07:12:49;;;;;;;9.87;4.30;;;12.90;99.90;;;;;;5046693;28;20179;-58
2023/05/30 07:15:15;;;;;;;8.77;3.57;;;12.90;99.90;;;;;;5052996;28;20173;-59
2023/05/30 07:17:40;;;;;;;8.10;3.40;;;13.00;99.90;;;;;;5053178;28;20280;-58
2023/05/30 07:20:07;;;;;;;8.57;2.80;;;13.00;99.90;;;;;;5053048;28;20248;-58
2023/05/30 07:22:32;;;;;;;6.87;3.63;;;13.00;99.90;;;;;;5050459;28;20372;-57
2023/05/30 07:24:58;;;;;;;5.80;3.13;;;13.00;99.90;;;;;;5049143;28;20169;-58
2023/05/30 07:27:24;;;;;;;7.27;3.60;;;13.10;99.90;;;;;;5048685;28;20177;-58
2023/05/30 07:29:49;;;;;;;10.53;3.57;;;13.00;99.90;;;;;;5049040;28;20498;-58
2023/05/30 07:32:15;;;;;;;8.27;3.63;;;13.00;99.90;;;;;;5050742;28;20779;-57
2023/05/30 07:34:41;;;;;;;6.83;3.30;;;13.00;99.90;;;;;;5052070;28;20180;-56
2023/05/30 07:37:09;;;;;;;4.00;2.60;;;13.10;99.90;;;;;;5053617;28;20211;-57
2023/05/30 07:39:35;;;;;;;7.10;3.27;;;13.10;99.90;;;;;;5051392;28;20573;-58
2023/05/30 07:42:00;;;;;;;8.77;3.53;;;13.10;99.90;;;;;;5049183;28;20640;-58
2023/05/30 07:44:26;;;;;;;6.80;3.33;;;13.10;99.90;;;;;;5049132;28;20173;-56
2023/05/30 07:46:52;;;;;;;8.30;3.57;;;13.20;99.90;;;;;;5048961;28;20491;-58
2023/05/30 07:49:19;;;;;;;9.17;3.47;;;13.10;99.90;;;;;;5046831;28;20185;-58
2023/05/30 07:51:45;;;;;;;13.67;4.07;;;13.20;99.90;;;;;;5048420;28;20272;-58
2023/05/30 07:54:10;;;;;;;5.20;2.63;;;13.20;99.90;;;;;;5048188;28;20280;-58
2023/05/30 07:56:36;;;;;;;8.83;3.17;;;13.20;99.90;;;;;;5049981;28;20173;-58
2023/05/30 07:59:01;;;;;;;7.03;2.70;;;13.20;99.90;;;;;;5051464;28;20173;-58
2023/05/30 08:01:27;;;;;;;10.40;3.77;;;13.20;99.90;;;;;;5052499;28;20188;-59
2023/05/30 08:03:53;;;;;;;11.93;3.97;;;13.20;99.90;;;;;;5051869;28;20161;-57
2023/05/30 08:06:19;;;;;;;8.07;3.67;;;13.20;99.90;;;;;;5052186;28;20264;-55
2023/05/30 08:08:45;;;;;;;12.60;4.07;;;13.20;99.90;;;;;;5052607;28;20767;-59
2023/05/30 08:11:11;;;;;;;8.20;3.40;;;13.20;99.90;;;;;;5051567;28;20173;-58
2023/05/30 08:13:37;;;;;;;9.60;3.40;;;13.20;99.90;;;;;;5049816;28;20631;-58
2023/05/30 08:16:02;;;;;;;6.37;2.87;;;13.20;99.90;;;;;;5043225;28;20393;-58
2023/05/30 08:18:30;;;;;;;8.87;3.40;;;13.20;99.90;;;;;;5040584;28;20185;-58
2023/05/30 08:20:56;;;;;;;7.17;3.03;;;13.30;99.90;;;;;;5041811;28;20161;-56
2023/05/30 08:23:21;;;;;;;7.97;3.60;;;13.30;99.90;;;;;;5047349;28;20263;-57
2023/05/30 08:25:48;;;;;;;9.57;3.90;;;13.30;99.90;;;;;;5045920;28;20201;-57
2023/05/30 08:28:14;;;;;;;7.63;3.77;;;13.30;99.90;;;;;;5048356;28;20165;-58
2023/05/30 08:30:44;;;;;;;8.60;4.27;;;13.30;99.90;;;;;;5046456;28;20589;-59
2023/05/30 08:33:12;;;;;;;10.20;4.47;;;13.40;99.90;;;;;;5046323;28;20177;-57
2023/05/30 08:35:37;;;;;;;9.27;4.83;;;13.40;99.90;;;;;;5047296;28;20225;-58
2023/05/30 08:38:03;;;;;;;9.13;4.17;;;13.30;99.90;;;;;;5047305;28;20180;-58
2023/05/30 08:40:29;;;;;;;8.70;3.67;;;13.30;99.90;;;;;;5048660;28;20184;-58
2023/05/30 08:42:54;;;;;;;11.10;4.00;;;13.30;99.90;;;;;;5048598;28;20205;-58
2023/05/30 08:45:20;;;;;;;8.83;3.97;;;13.30;99.90;;;;;;5047512;28;20181;-58
2023/05/30 08:47:47;;;;;;;6.73;3.13;;;13.30;99.90;;;;;;5049798;28;20162;-59
2023/05/30 08:50:20;;;;;;;6.53;3.43;;;13.30;99.90;;;;;;5048026;28;20762;-57
2023/05/30 08:52:52;;;;;;;8.27;3.97;;;13.30;99.90;;;;;;5031209;28;20580;-58
2023/05/30 08:55:25;;;;;;;9.43;4.87;;;13.40;99.90;;;;;;5031130;28;20184;-59
2023/05/30 08:58:07;;;;;;;8.10;4.67;;;13.30;99.90;;;;;;5047222;28;20521;-59
2023/05/30 09:00:34;;;;;;;10.53;4.70;;;13.30;99.90;;;;;;5045433;28;20169;-58
2023/05/30 09:03:05;;;;;;;9.60;3.40;;;13.30;99.90;;;;;;5044411;28;20208;-58
2023/05/30 09:05:34;;;;;;;8.30;3.60;;;13.30;99.90;;;;;;5043132;28;20176;-57
2023/05/30 09:08:02;;;;;;;4.90;2.87;;;13.40;99.90;;;;;;5045212;28;20178;-58
2023/05/30 09:10:29;;;;;;;12.30;5.13;;;13.40;99.90;;;;;;5045169;28;20201;-58
2023/05/30 09:12:57;;;;;;;11.60;3.73;;;13.50;99.90;;;;;;5046916;28;20173;-56
2023/05/30 09:15:23;;;;;;;9.87;3.80;;;13.50;99.90;;;;;;5030585;28;20181;-58
2023/05/30 09:17:51;;;;;;;7.93;3.30;;;13.60;99.90;;;;;;5046848;28;20176;-58
2023/05/30 09:20:18;;;;;;;4.03;2.97;;;13.60;99.90;;;;;;5046988;28;20177;-58
2023/05/30 09:22:45;;;;;;;6.00;3.10;;;13.70;99.90;;;;;;5048747;28;20201;-57
2023/05/30 09:25:14;;;;;;;9.17;3.60;;;13.70;99.90;;;;;;5048283;28;20180;-59
2023/05/30 09:27:46;;;;;;;7.73;4.00;;;13.80;99.90;;;;;;5049560;28;20158;-57
2023/05/30 09:30:13;;;;;;;6.47;3.60;;;13.80;99.90;;;;;;5031790;28;20166;-56
2023/05/30 09:32:58;;;;;;;7.87;4.10;;;13.90;99.90;;;;;;5046883;28;20619;-57
2023/05/30 09:35:25;;;;;;;5.70;2.97;;;13.80;99.90;;;;;;5027154;28;20217;-57
2023/05/30 09:37:50;;;;;;;11.60;4.00;;;13.80;99.90;;;;;;5044972;28;20596;-58
2023/05/30 09:40:16;;;;;;;11.23;4.13;;;13.80;99.90;;;;;;5046342;28;20161;-58
2023/05/30 09:42:48;;;;;;;13.23;4.27;;;13.80;99.90;;;;;;5045773;28;20209;-58
2023/05/30 09:45:18;;;;;;;6.60;3.27;;;13.80;99.90;;;;;;5046611;28;20165;-58
2023/05/30 09:47:46;;;;;;;9.47;3.77;;;13.80;99.90;;;;;;5029638;28;20169;-57
2023/05/30 09:50:18;;;;;;;10.87;3.23;;;13.90;99.90;;;;;;5047655;28;20169;-57
2023/05/30 09:52:45;;;;;;;14.97;3.97;;;13.90;99.90;;;;;;5029925;28;20181;-58
2023/05/30 09:55:15;;;;;;;5.77;3.23;;;14.00;99.90;;;;;;5046372;28;20174;-58
2023/05/30 09:57:46;;;;;;;8.17;3.53;;;14.00;99.90;;;;;;5047694;28;20377;-58
2023/05/30 10:00:18;;;;;;;4.00;3.17;;;14.00;99.90;;;;;;5047208;28;20199;-58
2023/05/30 10:02:52;;;;;;;6.77;3.37;;;14.10;99.90;;;;;;5046245;28;20212;-57
2023/05/30 10:05:20;;;;;;;6.73;3.40;;;14.10;99.90;;;;;;5044610;28;20187;-56
2023/05/30 10:07:47;;;;;;;7.70;3.57;;;14.10;99.90;;;;;;5045748;28;20177;-55
2023/05/30 10:10:16;;;;;;;8.00;3.57;;;14.20;99.90;;;;;;5044762;28;20192;-58
2023/05/30 10:12:46;;;;;;;6.43;3.20;;;14.20;99.90;;;;;;5045794;28;20698;-57
2023/05/30 10:15:15;;;;;;;7.33;4.07;;;14.20;99.90;;;;;;5029743;28;20714;-57
2023/05/30 10:17:45;;;;;;;13.70;5.00;;;14.30;99.90;;;;;;5046235;28;20277;-57
2023/05/30 10:20:14;;;;;;;8.37;3.80;;;14.20;99.90;;;;;;5046107;28;20177;-57
2023/05/30 10:22:45;;;;;;;7.83;3.00;;;14.30;99.90;;;;;;5045554;28;20205;-56
2023/05/30 10:25:12;;;;;;;7.67;3.40;;;14.20;99.90;;;;;;5045292;28;20178;-56
2023/05/30 10:27:45;;;;;;;5.60;3.23;;;14.30;99.90;;;;;;5044757;28;20165;-58
2023/05/30 10:30:17;;;;;;;4.87;3.07;;;14.30;99.90;;;;;;5045054;28;20860;-57
2023/05/30 10:32:47;;;;;;;12.40;4.13;;;14.40;99.90;;;;;;5046147;28;20189;-57
2023/05/30 10:35:20;;;;;;;4.80;2.57;;;14.30;99.90;;;;;;5042998;28;20224;-53
2023/05/30 10:37:48;;;;;;;5.63;2.50;;;14.40;99.90;;;;;;5042009;28;20180;-57
2023/05/30 10:40:44;;;;;;;6.17;3.53;;;14.50;99.90;;;;;;5039021;28;20275;-58
2023/05/30 10:43:20;;;;;;;4.70;2.53;;;14.50;99.90;;;;;;5039217;28;20231;-56
2023/05/30 10:46:04;;;;;;;11.40;4.13;;;14.50;99.90;;;;;;5040288;28;20784;-57
2023/05/30 10:48:44;;;;;;;10.70;3.97;;;14.50;99.90;;;;;;5036058;28;20447;-58
2023/05/30 10:51:11;;;;;;;6.63;3.70;;;14.60;99.90;;;;;;5042442;28;20268;-58
2023/05/30 10:53:43;;;;;;;11.97;4.00;;;14.50;99.90;;;;;;5043165;28;20273;-58
2023/05/30 10:56:41;;;;;;;9.33;2.77;;;14.50;99.90;;;;;;5042886;28;20199;-58
2023/05/30 10:59:19;;;;;;;7.53;3.47;;;14.60;99.90;;;;;;5041530;28;20180;-57
2023/05/30 11:01:59;;;;;;;7.07;2.63;;;14.70;99.90;;;;;;5040876;28;20213;-57
2023/05/30 11:04:32;;;;;;;4.47;2.90;;;14.70;99.90;;;;;;5039718;28;20244;-57
2023/05/30 11:07:04;;;;;;;6.43;2.63;;;14.70;99.90;;;;;;5040014;28;20790;-56
2023/05/30 11:09:33;;;;;;;7.60;2.93;;;14.80;99.90;;;;;;5040706;28;20178;-57
2023/05/30 11:12:00;;;;;;;12.13;3.73;;;14.80;99.90;;;;;;5044231;28;20269;-58
2023/05/30 11:14:30;;;;;;;7.10;3.07;;;14.80;99.90;;;;;;5043129;28;20613;-57
2023/05/30 11:17:08;;;;;;;7.37;3.00;;;14.90;99.90;;;;;;5042246;28;20157;-57
2023/05/30 11:19:46;;;;;;;8.80;3.40;;;14.90;99.90;;;;;;5023909;28;20185;-58
2023/05/30 11:22:22;;;;;;;9.77;2.80;;;14.90;99.90;;;;;;5041089;28;20213;-56
2023/05/30 11:25:29;;;;;;;6.23;3.50;;;15.00;99.90;;;;;;5043787;28;20173;-58
2023/05/30 11:28:03;;;;;;;4.30;2.83;;;15.00;99.90;;;;;;5043030;28;20196;-56
2023/05/30 11:30:35;;;;;;;4.73;2.93;;;15.10;99.90;;;;;;5042829;28;20783;-58
2023/05/30 11:33:02;;;;;;;8.50;3.20;;;15.10;99.90;;;;;;5028081;28;20180;-58
2023/05/30 11:35:31;;;;;;;3.67;2.17;;;15.20;99.90;;;;;;5044490;28;20652;-58
2023/05/30 11:37:57;;;;;;;5.70;2.33;;;15.20;99.90;;;;;;5043975;28;20323;-57
2023/05/30 11:40:28;;;;;;;8.17;3.57;;;15.20;99.90;;;;;;5045909;28;20260;-58
2023/05/30 11:42:56;;;;;;;8.53;4.13;;;15.20;99.90;;;;;;5045315;28;20205;-56
2023/05/30 11:45:29;;;;;;;7.80;3.13;;;15.30;99.90;;;;;;5044803;28;20575;-57
2023/05/30 11:48:08;;;;;;;11.37;3.20;;;15.30;99.90;;;;;;5042874;28;20314;-56
2023/05/30 11:50:42;;;;;;;5.00;2.97;;;15.30;99.90;;;;;;5044436;28;20205;-56
2023/05/30 11:53:15;;;;;;;5.20;2.70;;;15.40;99.90;;;;;;5042382;28;20235;-57
2023/05/30 11:55:48;;;;;;;7.67;3.37;;;15.50;99.90;;;;;;5039121;28;20240;-57
2023/05/30 11:58:15;;;;;;;8.27;3.53;;;15.50;99.90;;;;;;5040800;28;20174;-57
2023/05/30 12:00:41;;;;;;;6.53;3.50;;;15.50;99.90;;;;;;5025245;28;20242;-57
2023/05/30 12:03:11;;;;;;;3.87;2.97;;;15.50;99.90;;;;;;5026422;28;20215;-57
2023/05/30 12:05:42;;;;;;;6.73;3.10;;;15.50;99.90;;;;;;5044186;28;20158;-57
2023/05/30 12:08:14;;;;;;;5.33;2.73;;;15.50;99.90;;;;;;5025574;28;20254;-57
2023/05/30 12:10:41;;;;;;;7.00;3.10;;;15.50;99.90;;;;;;5043338;28;20184;-57
2023/05/30 12:13:08;;;;;;;5.20;3.20;;;15.60;99.90;;;;;;5043826;28;20200;-57
2023/05/30 12:15:38;;;;;;;4.90;2.33;;;15.60;99.90;;;;;;5044471;28;20226;-56
2023/05/30 12:18:06;;;;;;;7.50;2.87;;;15.70;99.90;;;;;;5043135;28;20169;-56
2023/05/30 12:20:41;;;;;;;6.00;3.03;;;15.70;99.90;;;;;;5025274;28;20178;-56
2023/05/30 12:23:08;;;;;;;8.80;3.37;;;15.70;99.90;;;;;;5023766;28;20288;-55
2023/05/30 12:25:34;;;;;;;8.10;3.93;;;15.70;99.90;;;;;;5041665;28;20165;-57
2023/05/30 12:28:00;;;;;;;5.20;2.90;;;15.70;99.90;;;;;;5043898;28;20170;-57
2023/05/30 12:30:31;;;;;;;5.50;3.00;;;15.70;99.90;;;;;;5042885;28;20244;-57
2023/05/30 12:32:57;;;;;;;6.27;2.67;;;15.80;99.90;;;;;;5041076;28;20212;-58
2023/05/30 12:35:26;;;;;;;5.10;2.63;;;15.90;99.90;;;;;;5026257;28;20267;-55
2023/05/30 12:37:56;;;;;;;9.37;4.03;;;15.90;99.90;;;;;;5043995;28;20212;-59
2023/05/30 12:40:25;;;;;;;7.30;2.67;;;16.00;99.90;;;;;;5046511;28;20517;-57
2023/05/30 12:42:56;;;;;;;8.23;3.10;;;16.00;99.90;;;;;;5046135;28;20581;-57
2023/05/30 12:45:22;;;;;;;17.20;5.10;;;16.00;99.90;;;;;;5047003;28;20273;-58
2023/05/30 12:47:48;;;;;;;17.23;7.23;;;16.00;99.90;;;;;;5045522;28;20268;-57